Time;durP1;ratioP1;P1;durP2;ratioP2;P2;SDS_P1;SDS_P2;PMS_P1;PMS_P2;Temp;Humidity;BMP_temperature;BMP_pressure;BME280_temperature;BME280_humidity;BME280_pressure;Samples;Min_cycle;Max_cycle;Signal;HPM_P1;HPM_P2
2022/05/07 00:00:07;;;;;;;8.77;3.58;;;;;;;11.21;64.02;101624.00;5067644;28;20158;-56
2022/05/07 00:02:38;;;;;;;5.70;3.03;;;;;;;11.22;64.33;101620.53;5073714;28;20055;-55
2022/05/07 00:05:22;;;;;;;5.25;2.85;;;;;;;11.23;63.67;101622.28;5073955;28;20198;-56
2022/05/07 00:07:51;;;;;;;7.95;2.72;;;;;;;11.25;64.25;101611.91;5073807;28;20045;-55
2022/05/07 00:10:21;;;;;;;5.88;2.50;;;;;;;11.28;63.81;101610.16;5068881;28;20056;-56
2022/05/07 00:12:47;;;;;;;3.70;2.17;;;;;;;11.30;63.72;101613.63;5073507;28;20048;-56
2022/05/07 00:15:16;;;;;;;4.22;1.95;;;;;;;11.34;63.24;101615.38;5073394;28;20056;-53
2022/05/07 00:20:33;;;;;;;4.35;1.40;;;;;;;11.36;63.05;101613.66;5073518;28;20189;-56
2022/05/07 00:23:04;;;;;;;2.97;1.92;;;;;;;11.38;63.60;101616.25;5073404;28;20048;-53
2022/05/07 00:25:32;;;;;;;5.93;2.00;;;;;;;11.39;63.47;101613.66;5073458;28;20052;-54
2022/05/07 00:28:02;;;;;;;4.38;2.50;;;;;;;11.43;63.20;101608.47;5073191;28;20045;-56
2022/05/07 00:30:32;;;;;;;3.90;2.00;;;;;;;11.44;62.83;101605.88;5073676;28;20052;-56
2022/05/07 00:33:00;;;;;;;3.63;1.85;;;;;;;11.45;63.09;101612.84;5073595;28;20110;-56
2022/05/07 00:35:28;;;;;;;5.00;2.03;;;;;;;11.48;62.97;101606.78;5072918;28;20531;-56
2022/05/07 00:38:01;;;;;;;3.47;1.85;;;;;;;11.47;62.56;101610.22;5073319;28;20149;-53
2022/05/07 00:40:29;;;;;;;7.18;2.58;;;;;;;11.46;62.99;101603.31;5072956;28;20436;-54
2022/05/07 00:42:58;;;;;;;4.55;2.00;;;;;;;11.44;62.70;101602.41;5072169;28;20059;-55
2022/05/07 00:45:26;;;;;;;6.15;2.30;;;;;;;11.44;62.70;101605.00;5072658;28;20053;-55
2022/05/07 00:47:56;;;;;;;4.82;2.33;;;;;;;11.43;62.53;101608.47;5062991;28;20057;-56
2022/05/07 00:53:11;;;;;;;6.80;2.40;;;;;;;11.42;62.67;101601.53;5052896;28;20114;-53
2022/05/07 00:55:38;;;;;;;4.13;2.20;;;;;;;11.42;62.44;101596.34;5052777;28;20132;-56
2022/05/07 00:58:05;;;;;;;4.68;2.22;;;;;;;11.44;62.73;101597.22;5051235;28;20060;-56
2022/05/07 01:00:33;;;;;;;5.03;2.25;;;;;;;11.45;62.92;101596.38;5069256;28;20385;-55
2022/05/07 01:05:44;;;;;;;4.53;2.40;;;;;;;11.46;62.84;101595.53;5072870;28;20045;-56
2022/05/07 01:08:21;;;;;;;4.75;2.47;;;;;;;11.46;62.84;101599.00;5072988;28;20052;-56
2022/05/07 01:10:51;;;;;;;4.97;2.60;;;;;;;11.47;62.47;101589.47;5072699;28;20052;-55
2022/05/07 01:13:22;;;;;;;5.18;2.17;;;;;;;11.46;62.68;101582.53;5064379;28;20463;-54
2022/05/07 01:15:56;;;;;;;3.90;2.25;;;;;;;11.47;62.27;101584.28;5072813;28;20064;-53
2022/05/07 01:18:25;;;;;;;4.55;2.30;;;;;;;11.45;62.54;101576.47;5072469;28;20147;-54
2022/05/07 01:21:01;;;;;;;4.20;1.90;;;;;;;11.46;62.63;101579.94;5072749;28;20045;-55
2022/05/07 01:23:44;;;;;;;5.90;2.08;;;;;;;11.45;62.34;101580.81;5072618;28;20106;-53
2022/05/07 01:26:16;;;;;;;6.25;2.22;;;;;;;11.43;62.53;101573.00;5072579;28;20049;-55
2022/05/07 01:28:44;;;;;;;6.15;2.15;;;;;;;11.45;62.51;101575.63;5072083;28;20447;-55
2022/05/07 01:31:14;;;;;;;3.97;2.05;;;;;;;11.43;62.37;101572.13;5070138;28;20098;-55
2022/05/07 01:33:45;;;;;;;4.30;2.00;;;;;;;11.42;62.23;101575.59;5072541;28;20052;-55
2022/05/07 01:36:16;;;;;;;4.03;1.90;;;;;;;11.41;62.50;101568.66;5072189;28;20052;-54
2022/05/07 01:38:52;;;;;;;3.10;1.85;;;;;;;11.40;62.48;101572.97;5072577;28;20134;-55
2022/05/07 01:41:22;;;;;;;3.47;1.70;;;;;;;11.38;62.56;101570.38;5064245;28;20480;-55
2022/05/07 01:43:53;;;;;;;2.95;1.58;;;;;;;11.39;62.53;101572.13;5072151;28;20065;-56
2022/05/07 01:49:09;;;;;;;5.68;1.90;;;;;;;11.41;62.73;101569.53;5052551;28;20199;-55
2022/05/07 01:51:38;;;;;;;4.40;1.55;;;;;;;11.40;62.26;101572.97;5062955;28;20036;-56
2022/05/07 01:54:11;;;;;;;4.30;1.73;;;;;;;11.43;62.51;101574.72;5069356;28;20056;-53
2022/05/07 01:56:39;;;;;;;3.88;1.55;;;;;;;11.44;62.38;101574.72;5052021;28;20471;-56
2022/05/07 01:59:09;;;;;;;3.35;1.42;;;;;;;11.46;62.40;101572.16;5060644;28;20048;-56
2022/05/07 02:01:36;;;;;;;2.47;1.52;;;;;;;11.45;62.67;101567.81;5075806;28;20048;-57
2022/05/07 02:04:05;;;;;;;4.25;1.50;;;;;;;11.44;62.17;101571.25;5076103;28;20049;-57
2022/05/07 02:06:31;;;;;;;3.33;1.48;;;;;;;11.45;62.33;101567.81;5075849;28;20460;-56
2022/05/07 02:08:59;;;;;;;3.15;1.10;;;;;;;11.48;62.26;101570.44;5071362;28;20056;-56
2022/05/07 02:11:41;;;;;;;3.40;1.45;;;;;;;11.50;61.97;101568.69;5075253;28;20057;-56
2022/05/07 02:14:11;;;;;;;6.97;1.52;;;;;;;11.48;62.02;101558.31;5075824;28;20048;-54
2022/05/07 02:16:46;;;;;;;4.07;1.80;;;;;;;11.51;62.33;101570.44;5076048;28;20052;-56
2022/05/07 02:19:16;;;;;;;2.85;1.38;;;;;;;11.49;62.40;101557.44;5075896;28;20048;-56
2022/05/07 02:24:27;;;;;;;3.25;1.63;;;;;;;11.45;62.27;101555.72;5075794;28;20055;-53
2022/05/07 02:27:06;;;;;;;2.38;1.60;;;;;;;11.45;62.70;101560.03;5075120;28;20138;-55
2022/05/07 02:29:37;;;;;;;3.53;1.48;;;;;;;11.43;62.37;101559.13;5075653;28;20066;-56
2022/05/07 02:32:13;;;;;;;4.40;1.77;;;;;;;11.43;62.71;101564.34;5075830;28;20076;-54
2022/05/07 02:34:42;;;;;;;5.13;1.70;;;;;;;11.43;62.50;101556.53;5075755;28;20113;-54
2022/05/07 02:39:54;;;;;;;4.82;1.60;;;;;;;11.43;62.80;101557.41;5075255;28;20052;-56
2022/05/07 02:42:37;;;;;;;4.15;1.67;;;;;;;11.47;62.06;101566.97;5075066;28;20076;-56
2022/05/07 02:45:08;;;;;;;2.65;1.50;;;;;;;11.45;61.96;101570.44;5075278;28;20056;-54
2022/05/07 02:47:35;;;;;;;2.38;1.40;;;;;;;11.46;61.86;101566.97;5074905;28;20060;-55
2022/05/07 02:50:06;;;;;;;2.83;1.50;;;;;;;11.45;62.02;101560.03;5075651;28;20413;-56
2022/05/07 02:52:42;;;;;;;2.75;1.50;;;;;;;11.45;62.20;101560.03;5075530;28;20508;-56
2022/05/07 02:55:11;;;;;;;5.15;1.60;;;;;;;11.45;62.40;101560.91;5075603;28;20052;-56
2022/05/07 02:57:46;;;;;;;3.97;1.75;;;;;;;11.47;62.18;101563.50;5075298;28;20469;-56
2022/05/07 03:00:18;;;;;;;2.75;1.60;;;;;;;11.48;62.40;101567.84;5075435;28;20055;-56
2022/05/07 03:02:48;;;;;;;2.75;1.70;;;;;;;11.49;62.29;101559.19;5075352;28;20040;-56
2022/05/07 03:05:18;;;;;;;3.55;1.73;;;;;;;11.51;62.04;101560.03;5075890;28;20100;-56
2022/05/07 03:10:28;;;;;;;4.32;2.30;;;;;;;11.55;61.84;101566.97;5074097;28;20395;-54
2022/05/07 03:13:05;;;;;;;3.05;1.70;;;;;;;11.58;62.26;101567.84;5075070;28;20531;-52
2022/05/07 03:15:33;;;;;;;2.55;1.38;;;;;;;11.56;62.48;101563.50;5075322;28;20076;-54
2022/05/07 03:18:02;;;;;;;3.10;1.60;;;;;;;11.57;62.17;101567.84;5075161;28;20052;-55
2022/05/07 03:20:30;;;;;;;3.85;1.80;;;;;;;11.56;62.27;101573.91;5075185;28;20057;-53
2022/05/07 03:23:06;;;;;;;3.85;1.45;;;;;;;11.59;62.38;101573.91;5075264;28;20052;-55
2022/05/07 03:25:36;;;;;;;2.67;1.75;;;;;;;11.63;62.35;101573.91;5075148;28;20057;-55
2022/05/07 03:28:10;;;;;;;2.85;1.38;;;;;;;11.65;62.31;101576.50;5075189;28;20125;-52
2022/05/07 03:30:40;;;;;;;3.63;1.50;;;;;;;11.69;62.39;101566.09;5074855;28;20056;-54
2022/05/07 03:33:10;;;;;;;4.55;1.70;;;;;;;11.74;61.84;101567.84;5075066;28;20049;-52
2022/05/07 03:35:39;;;;;;;6.28;2.30;;;;;;;11.77;61.76;101560.91;5074932;28;20052;-54
2022/05/07 03:38:09;;;;;;;4.53;1.50;;;;;;;11.81;61.75;101565.28;5075019;28;20072;-53
2022/05/07 03:40:39;;;;;;;2.78;1.45;;;;;;;11.85;61.67;101564.41;5074554;28;20106;-55
2022/05/07 03:43:15;;;;;;;2.83;1.40;;;;;;;11.91;61.30;101572.19;5074194;28;20059;-54
2022/05/07 03:45:42;;;;;;;6.60;1.98;;;;;;;11.92;61.46;101563.53;5074220;28;20052;-52
2022/05/07 03:48:13;;;;;;;6.10;1.92;;;;;;;11.94;61.36;101567.00;5074302;28;20063;-52
2022/05/07 03:50:41;;;;;;;3.05;1.50;;;;;;;11.96;61.17;101573.06;5074662;28;20052;-54
2022/05/07 03:55:54;;;;;;;4.07;2.10;;;;;;;12.02;61.45;101560.94;5073914;28;20067;-55
2022/05/07 03:58:28;;;;;;;2.78;1.63;;;;;;;12.08;61.39;101558.34;5074014;28;20471;-54
2022/05/07 04:00:56;;;;;;;3.60;1.50;;;;;;;12.11;60.90;101558.34;5073626;28;20056;-55
2022/05/07 04:03:24;;;;;;;2.30;1.40;;;;;;;12.16;61.18;101556.59;5073665;28;20052;-54
2022/05/07 04:05:52;;;;;;;3.95;1.27;;;;;;;12.18;60.91;101560.91;5073779;28;20475;-55
2022/05/07 04:08:23;;;;;;;3.15;1.38;;;;;;;12.19;60.97;101560.03;5073849;28;20074;-54
2022/05/07 04:10:54;;;;;;;9.65;2.08;;;;;;;12.23;60.91;101553.09;5074232;28;20045;-55
2022/05/07 04:13:22;;;;;;;5.07;1.67;;;;;;;12.24;60.64;101554.84;5074173;28;20049;-51
2022/05/07 04:15:52;;;;;;;3.67;1.80;;;;;;;12.27;60.75;101547.91;5074199;28;20044;-54
2022/05/07 04:18:21;;;;;;;4.10;1.60;;;;;;;12.32;60.74;101550.47;5065906;28;20055;-54
2022/05/07 04:20:51;;;;;;;4.18;1.60;;;;;;;12.36;60.84;101547.00;5073886;28;20060;-54
2022/05/07 04:23:22;;;;;;;2.38;1.48;;;;;;;12.38;60.81;101547.88;5073601;28;20553;-53
2022/05/07 04:25:52;;;;;;;3.33;1.40;;;;;;;12.40;60.87;101551.31;5074162;28;20063;-55
2022/05/07 04:28:18;;;;;;;3.38;1.40;;;;;;;12.43;60.72;101546.13;5065648;28;20457;-54
2022/05/07 04:30:48;;;;;;;3.95;1.70;;;;;;;12.46;61.17;101545.25;5073552;28;20052;-52
2022/05/07 04:33:32;;;;;;;4.53;1.80;;;;;;;12.47;61.54;101552.16;5073895;28;20071;-54
2022/05/07 04:36:02;;;;;;;3.03;1.73;;;;;;;12.46;61.74;101551.31;5073763;28;20113;-54
2022/05/07 04:38:30;;;;;;;4.70;1.88;;;;;;;12.47;61.91;101549.56;5073736;28;20135;-55
2022/05/07 04:40:56;;;;;;;5.18;1.95;;;;;;;12.47;61.98;101558.22;5073016;28;20063;-54
2022/05/07 04:43:25;;;;;;;3.30;1.98;;;;;;;12.48;62.05;101553.91;5072895;28;20523;-52
2022/05/07 04:45:55;;;;;;;3.97;2.45;;;;;;;12.47;61.90;101550.44;5073357;28;20084;-55
2022/05/07 04:48:24;;;;;;;4.35;2.10;;;;;;;12.50;62.10;101558.25;5057432;28;20080;-55
2022/05/07 04:50:52;;;;;;;6.38;1.80;;;;;;;12.51;61.68;101556.53;5053226;28;20048;-54
2022/05/07 04:53:19;;;;;;;5.05;1.95;;;;;;;12.51;61.62;101559.13;5052603;28;20045;-52
2022/05/07 04:55:48;;;;;;;3.55;1.80;;;;;;;12.53;61.66;101558.25;5053139;28;20519;-52
2022/05/07 04:58:16;;;;;;;4.60;1.90;;;;;;;12.59;61.96;101553.03;5053326;28;20063;-53
2022/05/07 05:00:46;;;;;;;3.92;1.70;;;;;;;12.63;62.13;101548.66;5071467;28;20077;-51
2022/05/07 05:03:14;;;;;;;5.75;1.73;;;;;;;12.68;62.13;101553.84;5072817;28;20360;-51
2022/05/07 05:05:46;;;;;;;3.15;1.60;;;;;;;12.73;62.02;101552.09;5073204;28;20053;-52
2022/05/07 05:08:15;;;;;;;3.00;1.65;;;;;;;12.77;61.92;101548.59;5072961;28;20504;-53
2022/05/07 05:10:45;;;;;;;6.32;2.00;;;;;;;12.85;61.76;101549.44;5073249;28;20052;-55
2022/05/07 05:13:12;;;;;;;4.05;2.20;;;;;;;12.88;61.70;101544.22;5073392;28;20387;-53
2022/05/07 05:15:42;;;;;;;4.13;2.67;;;;;;;12.92;61.83;101540.72;5072990;28;20059;-55
2022/05/07 05:18:12;;;;;;;3.65;2.40;;;;;;;12.96;61.92;101547.63;5073205;28;20060;-55
2022/05/07 05:20:41;;;;;;;3.55;2.28;;;;;;;13.01;61.96;101545.91;5073293;28;20056;-55
2022/05/07 05:23:15;;;;;;;3.90;2.28;;;;;;;13.03;62.18;101544.16;5072955;28;20048;-52
2022/05/07 05:25:43;;;;;;;4.10;2.53;;;;;;;13.04;62.35;101535.47;5073097;28;20059;-51
2022/05/07 05:28:19;;;;;;;5.60;2.72;;;;;;;13.11;62.35;101542.38;5073005;28;20080;-55
2022/05/07 05:30:56;;;;;;;5.00;2.72;;;;;;;13.15;62.19;101538.88;5073181;28;20060;-51
2022/05/07 05:33:25;;;;;;;5.65;2.72;;;;;;;13.21;62.27;101533.66;5070737;28;20045;-53
2022/05/07 05:35:53;;;;;;;5.45;2.92;;;;;;;13.34;62.10;101536.19;5074218;28;20510;-53
2022/05/07 05:38:26;;;;;;;4.63;2.58;;;;;;;13.54;61.75;101537.78;5059306;28;20060;-54
2022/05/07 05:40:56;;;;;;;5.22;2.53;;;;;;;13.67;61.55;101538.53;5065457;28;20359;-54
2022/05/07 05:43:25;;;;;;;4.45;2.83;;;;;;;13.82;61.21;101538.41;5079240;28;20466;-53
2022/05/07 05:45:52;;;;;;;5.85;3.05;;;;;;;13.94;61.13;101533.94;5079551;28;20088;-52
2022/05/07 05:51:02;;;;;;;5.28;2.97;;;;;;;14.12;60.75;101536.41;5079430;28;20048;-55
2022/05/07 05:53:32;;;;;;;7.68;2.60;;;;;;;14.21;60.61;101536.31;5071297;28;20352;-55
2022/05/07 05:56:01;;;;;;;4.20;2.55;;;;;;;14.27;60.42;101541.44;5071010;28;20052;-55
2022/05/07 05:58:39;;;;;;;3.95;2.78;;;;;;;14.37;60.19;101542.22;5079229;28;20135;-55
2022/05/07 06:01:09;;;;;;;5.45;2.95;;;;;;;14.41;60.29;101543.91;5067827;28;20044;-55
2022/05/07 06:03:39;;;;;;;4.28;2.50;;;;;;;14.44;60.63;101534.31;5078960;28;20123;-55
2022/05/07 06:06:07;;;;;;;5.25;2.85;;;;;;;14.47;60.94;101542.13;5079101;28;20462;-54
2022/05/07 06:08:48;;;;;;;6.50;2.55;;;;;;;14.50;60.88;101539.47;5079128;28;20483;-55
2022/05/07 06:11:19;;;;;;;5.03;2.63;;;;;;;14.53;60.69;101528.13;5059330;28;20139;-54
2022/05/07 06:13:55;;;;;;;6.22;3.10;;;;;;;14.59;60.80;101542.88;5059199;28;20088;-55
2022/05/07 06:16:23;;;;;;;4.00;2.13;;;;;;;14.63;60.88;101535.00;5051787;28;20067;-54
2022/05/07 06:18:50;;;;;;;4.90;2.17;;;;;;;14.71;60.85;101540.13;5070548;28;20427;-55
2022/05/07 06:21:17;;;;;;;6.35;3.22;;;;;;;14.77;60.81;101537.44;5078203;28;20057;-52
2022/05/07 06:23:48;;;;;;;10.85;2.72;;;;;;;14.84;60.74;101533.84;5079172;28;20110;-55
2022/05/07 06:29:03;;;;;;;4.88;1.95;;;;;;;14.95;59.34;101533.69;5078336;28;20059;-55
2022/05/07 06:31:31;;;;;;;4.10;1.77;;;;;;;15.03;58.84;101537.94;5078667;28;20139;-55
2022/05/07 06:34:05;;;;;;;2.92;1.60;;;;;;;15.12;58.58;101540.44;5058736;28;20041;-55
2022/05/07 06:36:36;;;;;;;3.97;2.05;;;;;;;15.18;58.08;101538.63;5057974;28;20495;-55
2022/05/07 06:39:07;;;;;;;3.45;1.80;;;;;;;15.23;57.63;101540.28;5058757;28;20067;-52
2022/05/07 06:41:36;;;;;;;4.35;1.80;;;;;;;15.29;57.21;101541.94;5070336;28;20044;-55
2022/05/07 06:44:03;;;;;;;4.20;2.00;;;;;;;15.35;57.17;101541.84;5075923;28;20502;-55
2022/05/07 06:46:32;;;;;;;4.28;2.05;;;;;;;15.42;56.74;101533.88;5075909;28;20048;-52
2022/05/07 06:49:03;;;;;;;3.65;1.50;;;;;;;15.51;56.58;101539.84;5057042;28;20141;-55
2022/05/07 06:51:35;;;;;;;5.22;1.65;;;;;;;15.61;56.04;101531.88;5055565;28;20137;-55
2022/05/07 06:54:03;;;;;;;5.15;2.00;;;;;;;15.72;55.84;101532.56;5055820;28;20094;-55
2022/05/07 06:56:47;;;;;;;3.78;1.70;;;;;;;15.85;55.42;101537.59;5054646;28;20086;-55
2022/05/07 06:59:16;;;;;;;3.47;1.80;;;;;;;15.95;55.18;101539.16;5061622;28;20048;-55
2022/05/07 07:01:43;;;;;;;4.45;2.17;;;;;;;16.04;54.78;101544.22;5075208;28;20053;-55
2022/05/07 07:04:13;;;;;;;3.92;1.60;;;;;;;16.14;54.98;101545.78;5075168;28;20045;-54
2022/05/07 07:06:42;;;;;;;4.25;2.03;;;;;;;16.23;54.68;101545.63;5075186;28;20085;-54
2022/05/07 07:09:09;;;;;;;4.00;1.98;;;;;;;16.29;54.53;101545.50;5075330;28;20479;-53
2022/05/07 07:11:40;;;;;;;5.95;1.80;;;;;;;16.35;54.59;101540.16;5075385;28;20052;-53
2022/05/07 07:14:10;;;;;;;3.90;1.67;;;;;;;16.40;54.38;101543.53;5075334;28;20056;-53
2022/05/07 07:16:40;;;;;;;4.30;1.60;;;;;;;16.43;54.40;101542.59;5075271;28;20076;-52
2022/05/07 07:19:09;;;;;;;3.42;1.52;;;;;;;16.47;54.12;101538.16;5074950;28;20052;-52
2022/05/07 07:21:38;;;;;;;7.18;2.28;;;;;;;16.47;54.26;101540.78;5075000;28;20102;-51
2022/05/07 07:24:08;;;;;;;4.15;1.55;;;;;;;16.50;54.26;101532.88;5075071;28;20066;-52
2022/05/07 07:26:36;;;;;;;3.80;2.10;;;;;;;16.52;54.13;101537.19;5075360;28;20441;-55
2022/05/07 07:29:11;;;;;;;2.58;1.60;;;;;;;16.53;53.64;101532.81;5060727;28;20063;-54
2022/05/07 07:31:41;;;;;;;2.38;1.60;;;;;;;16.53;54.23;101533.69;5054691;28;20538;-56
2022/05/07 07:34:09;;;;;;;4.40;1.80;;;;;;;16.55;53.90;101533.66;5054975;28;20083;-54
2022/05/07 07:36:37;;;;;;;5.25;2.10;;;;;;;16.57;53.58;101531.84;5054715;28;20048;-55
2022/05/07 07:39:16;;;;;;;4.82;1.70;;;;;;;16.58;53.81;101531.81;5054484;28;20049;-55
2022/05/07 07:41:45;;;;;;;4.53;2.30;;;;;;;16.57;53.80;101532.72;5068072;28;20052;-56
2022/05/07 07:44:15;;;;;;;6.63;2.10;;;;;;;16.58;53.54;101530.97;5074205;28;20048;-55
2022/05/07 07:49:29;;;;;;;5.28;2.10;;;;;;;16.56;53.55;101530.13;5047662;28;20617;-56
2022/05/07 07:52:00;;;;;;;6.32;2.20;;;;;;;16.56;53.27;101533.63;5054104;28;20362;-55
2022/05/07 07:54:30;;;;;;;4.45;2.45;;;;;;;16.56;53.40;101540.59;5062663;28;20044;-56
2022/05/07 07:56:58;;;;;;;4.18;2.28;;;;;;;16.56;53.27;101537.97;5057795;28;20133;-55
2022/05/07 07:59:30;;;;;;;3.05;2.00;;;;;;;16.58;52.67;101533.59;5061757;28;20056;-56
2022/05/07 08:01:58;;;;;;;3.50;2.00;;;;;;;16.57;52.74;101527.47;5073903;28;20508;-56
2022/05/07 08:04:26;;;;;;;5.38;2.30;;;;;;;16.61;52.90;101536.13;5073796;28;20040;-52
2022/05/07 08:12:19;;;;;;;4.75;1.92;;;;;;;16.61;52.77;101537.00;5071752;28;20183;-54
2022/05/07 08:14:48;;;;;;;5.20;2.15;;;;;;;16.60;52.64;101534.41;5054231;28;20071;-52
2022/05/07 08:17:25;;;;;;;6.95;2.50;;;;;;;16.57;52.49;101531.84;5053722;28;20049;-53
2022/05/07 08:19:53;;;;;;;5.82;2.70;;;;;;;16.54;52.75;101530.16;5053270;28;20480;-53
2022/05/07 08:22:23;;;;;;;6.70;2.25;;;;;;;16.56;52.88;101537.97;5053534;28;20049;-53
2022/05/07 08:24:50;;;;;;;6.75;2.72;;;;;;;16.59;52.48;101532.69;5053484;28;20073;-55
2022/05/07 08:27:19;;;;;;;3.33;1.92;;;;;;;16.62;52.34;101533.47;5052868;28;20067;-55
2022/05/07 08:29:49;;;;;;;5.15;2.20;;;;;;;16.68;52.30;101529.94;5053470;28;20049;-56
2022/05/07 08:32:19;;;;;;;3.28;2.22;;;;;;;16.76;52.09;101535.88;5053341;28;20053;-55
2022/05/07 08:34:50;;;;;;;5.60;2.53;;;;;;;16.80;51.69;101531.44;5053438;28;20124;-56
2022/05/07 08:37:20;;;;;;;5.28;2.50;;;;;;;16.82;51.81;101530.50;5053517;28;20099;-56
2022/05/07 08:39:50;;;;;;;3.75;2.22;;;;;;;16.84;51.81;101536.56;5053466;28;20053;-56
2022/05/07 08:42:20;;;;;;;3.67;1.95;;;;;;;16.88;51.59;101530.38;5071341;28;20055;-56
2022/05/07 08:44:56;;;;;;;3.80;2.05;;;;;;;16.93;51.37;101528.50;5072925;28;20087;-55
2022/05/07 08:47:24;;;;;;;4.30;2.20;;;;;;;17.05;51.64;101522.13;5072912;28;20059;-52
2022/05/07 08:49:57;;;;;;;3.60;2.17;;;;;;;17.22;51.15;101524.38;5073129;28;20139;-53
2022/05/07 08:52:35;;;;;;;3.53;1.92;;;;;;;17.41;50.50;101516.94;5073134;28;20048;-53
2022/05/07 08:55:06;;;;;;;6.50;2.50;;;;;;;17.64;50.20;101518.09;5073186;28;20088;-55
2022/05/07 08:57:34;;;;;;;4.03;2.42;;;;;;;17.86;49.82;101517.59;5072708;28;20479;-55
2022/05/07 09:00:08;;;;;;;8.35;2.33;;;;;;;18.05;48.63;101516.19;5060276;28;20453;-53
2022/05/07 09:02:48;;;;;;;3.05;2.22;;;;;;;18.15;48.46;101515.03;5062624;28;20044;-55
2022/05/07 09:05:19;;;;;;;3.42;2.40;;;;;;;18.27;48.30;101513.88;5072967;28;20041;-56
2022/05/07 09:08:02;;;;;;;6.68;2.60;;;;;;;18.41;48.02;101510.84;5072029;28;20101;-54
2022/05/07 09:10:40;;;;;;;3.22;2.35;;;;;;;18.52;48.02;101516.66;5072554;28;20067;-56
2022/05/07 09:13:20;;;;;;;4.05;2.40;;;;;;;18.67;47.57;101513.59;5072889;28;20135;-56
2022/05/07 09:16:07;;;;;;;4.97;2.25;;;;;;;18.83;46.72;101511.41;5072906;28;20052;-54
2022/05/07 09:18:42;;;;;;;4.72;2.50;;;;;;;18.97;47.17;101511.84;5064042;28;20044;-52
2022/05/07 09:21:24;;;;;;;3.42;2.30;;;;;;;19.10;46.80;101512.31;5053437;28;20530;-54
2022/05/07 09:24:05;;;;;;;3.30;2.30;;;;;;;19.25;46.25;101501.34;5052314;28;20052;-56
2022/05/07 09:26:35;;;;;;;5.38;2.50;;;;;;;19.42;45.88;101498.16;5052445;28;20057;-56
2022/05/07 09:29:04;;;;;;;6.30;2.55;;;;;;;19.61;45.07;101488.78;5052569;28;20131;-55
2022/05/07 09:31:41;;;;;;;2.92;2.05;;;;;;;19.83;44.42;101494.19;5064726;28;20072;-55
2022/05/07 09:37:01;;;;;;;4.43;2.30;;;;;;;20.19;44.62;101492.00;5055266;28;20798;-56
2022/05/07 09:39:35;;;;;;;3.35;2.55;;;;;;;20.40;43.50;101486.00;5052673;28;20053;-56
2022/05/07 09:42:04;;;;;;;5.22;2.60;;;;;;;20.59;43.54;101478.25;5068222;28;20488;-55
2022/05/07 09:44:35;;;;;;;3.13;2.25;;;;;;;20.76;43.41;101483.72;5072254;28;20361;-56
2022/05/07 09:47:09;;;;;;;5.93;2.33;;;;;;;20.93;43.04;101474.34;5061660;28;20769;-56
2022/05/07 09:50:19;;;;;;;3.05;2.53;;;;;;;21.11;42.76;101479.72;5072802;28;20048;-55
2022/05/07 09:52:30;;;;;;;5.00;2.30;;;;;;;21.28;42.54;101476.44;5071484;28;20056;-55
2022/05/07 09:57:44;;;;;;;12.57;2.72;;;;;;;21.54;42.07;101477.16;5072697;28;20059;-55
2022/05/07 10:00:22;;;;;;;5.03;2.67;;;;;;;21.59;42.08;101480.44;5070772;28;20135;-56
2022/05/07 10:03:09;;;;;;;4.18;2.17;;;;;;;21.60;41.70;101476.88;5072694;28;20067;-56
2022/05/07 10:05:54;;;;;;;7.28;2.55;;;;;;;21.59;42.03;101472.53;5072460;28;20071;-55
2022/05/07 10:08:36;;;;;;;3.72;2.03;;;;;;;21.65;41.58;101470.47;5071889;28;20421;-54
2022/05/07 10:11:14;;;;;;;12.85;3.00;;;;;;;21.72;41.08;101471.94;5052380;28;20053;-54
2022/05/07 10:13:55;;;;;;;6.63;2.70;;;;;;;21.78;40.62;101476.09;5052462;28;20053;-53
2022/05/07 10:16:24;;;;;;;5.60;2.40;;;;;;;21.75;40.57;101470.94;5059791;28;20071;-56
2022/05/07 10:19:01;;;;;;;4.15;2.28;;;;;;;21.72;40.77;101471.06;5065370;28;20062;-55
2022/05/07 10:21:30;;;;;;;4.28;2.55;;;;;;;21.68;41.15;101459.78;5056263;28;20056;-55
2022/05/07 10:23:58;;;;;;;3.65;2.28;;;;;;;21.67;41.02;101462.50;5072898;28;20127;-55
2022/05/07 10:26:41;;;;;;;4.63;2.17;;;;;;;21.63;41.14;101455.66;5075929;28;20358;-52
2022/05/07 10:29:21;;;;;;;8.77;2.83;;;;;;;21.59;40.74;101461.97;5076238;28;20048;-56
2022/05/07 10:31:51;;;;;;;4.65;2.38;;;;;;;21.48;40.94;101451.88;5075914;28;20511;-54
2022/05/07 10:34:30;;;;;;;20.63;3.20;;;;;;;21.35;40.49;101455.97;5067930;28;20052;-55
2022/05/07 10:37:11;;;;;;;14.32;3.75;;;;;;;21.27;41.26;101458.88;5076067;28;20067;-54
2022/05/07 10:39:52;;;;;;;9.50;2.10;;;;;;;21.21;41.49;101453.84;5075896;28;20048;-56
2022/05/07 10:42:23;;;;;;;8.57;2.30;;;;;;;21.17;41.46;101457.53;5049446;28;20376;-55
2022/05/07 10:45:01;;;;;;;5.47;2.25;;;;;;;21.16;41.86;101461.09;5055346;28;20056;-56
2022/05/07 10:47:30;;;;;;;5.35;2.20;;;;;;;21.13;41.86;101455.94;5061963;28;20048;-56
2022/05/07 10:50:13;;;;;;;9.70;2.08;;;;;;;21.06;41.03;101450.06;5075713;28;20445;-55
2022/05/07 10:52:44;;;;;;;7.38;2.05;;;;;;;21.06;40.98;101454.47;5069348;28;20110;-54
2022/05/07 10:55:21;;;;;;;6.68;2.03;;;;;;;21.09;40.98;101449.06;5074902;28;20053;-55
2022/05/07 10:57:52;;;;;;;6.25;2.63;;;;;;;21.14;40.93;101449.75;5062778;28;20071;-55
2022/05/07 11:00:20;;;;;;;12.27;2.28;;;;;;;21.21;40.54;101427.47;5055679;28;20060;-53
2022/05/07 11:02:58;;;;;;;7.60;1.75;;;;;;;21.26;40.20;101435.22;5065818;28;20052;-56
2022/05/07 11:05:42;;;;;;;12.38;2.60;;;;;;;21.29;39.59;101440.38;5075591;28;20044;-56
2022/05/07 11:08:18;;;;;;;2.80;1.55;;;;;;;21.28;39.96;101441.28;5075526;28;20087;-56
2022/05/07 11:10:48;;;;;;;10.45;2.38;;;;;;;21.29;39.98;101440.38;5075471;28;20417;-52
2022/05/07 11:13:19;;;;;;;6.95;2.20;;;;;;;21.26;40.03;101441.34;5075154;28;20136;-56
2022/05/07 11:15:50;;;;;;;9.95;2.08;;;;;;;21.21;39.82;101443.28;5075501;28;20059;-56
2022/05/07 11:18:18;;;;;;;5.53;2.00;;;;;;;21.20;40.11;101446.84;5074899;28;20113;-55
2022/05/07 11:21:01;;;;;;;4.30;2.40;;;;;;;21.17;39.62;101441.72;5074946;28;20372;-56
2022/05/07 11:23:31;;;;;;;3.45;1.85;;;;;;;21.15;40.22;101447.97;5074841;28;20048;-56
2022/05/07 11:26:00;;;;;;;4.88;1.75;;;;;;;21.11;40.45;101448.09;5074972;28;20041;-53
2022/05/07 11:28:27;;;;;;;4.05;2.00;;;;;;;21.11;40.58;101453.38;5074447;28;20048;-56
2022/05/07 11:30:59;;;;;;;6.30;2.30;;;;;;;21.10;40.64;101434.97;5070133;28;20060;-56
2022/05/07 11:33:29;;;;;;;2.78;1.75;;;;;;;21.14;40.85;101436.56;5074914;28;20055;-56
2022/05/07 11:36:11;;;;;;;6.88;1.98;;;;;;;21.15;40.41;101437.41;5074821;28;20048;-56
2022/05/07 11:38:42;;;;;;;7.63;2.83;;;;;;;21.13;40.83;101428.72;5074765;28;20049;-56
2022/05/07 11:41:22;;;;;;;4.90;2.40;;;;;;;21.09;40.83;101438.53;5065949;28;20045;-55
2022/05/07 11:46:58;;;;;;;4.43;2.00;;;;;;;21.02;41.00;101437.06;5054297;28;20492;-54
2022/05/07 11:49:34;;;;;;;7.28;2.60;;;;;;;21.01;41.07;101441.47;5054537;28;20068;-52
2022/05/07 11:52:13;;;;;;;2.92;2.00;;;;;;;21.00;40.76;101439.75;5074091;28;20076;-55
2022/05/07 11:54:49;;;;;;;5.10;2.22;;;;;;;20.99;40.84;101437.19;5074271;28;20385;-55
2022/05/07 11:57:30;;;;;;;15.80;2.47;;;;;;;20.98;40.53;101431.06;5074223;28;20123;-55
2022/05/07 12:00:12;;;;;;;5.10;2.15;;;;;;;20.98;40.93;101424.94;5074296;28;20155;-52
2022/05/07 12:02:51;;;;;;;3.88;1.83;;;;;;;20.97;40.78;101433.75;5073773;28;20476;-56
2022/05/07 12:05:18;;;;;;;10.02;2.95;;;;;;;20.98;40.94;101422.31;5074300;28;20045;-55
2022/05/07 12:07:53;;;;;;;8.57;2.22;;;;;;;20.99;40.66;101438.06;5074049;28;20118;-56
2022/05/07 12:10:31;;;;;;;7.70;2.30;;;;;;;20.98;40.65;101436.34;5073669;28;20068;-56
2022/05/07 12:12:59;;;;;;;6.38;2.17;;;;;;;20.98;40.92;101436.34;5073700;28;20053;-56
2022/05/07 12:18:15;;;;;;;2.95;2.03;;;;;;;20.97;41.28;101439.03;5073586;28;20087;-55
2022/05/07 12:20:45;;;;;;;3.95;2.00;;;;;;;20.95;41.26;101440.88;5073532;28;20442;-55
2022/05/07 12:31:34;;;;;;;4.75;2.72;;;;;;;20.80;42.17;101448.44;5053436;28;20440;-56
2022/05/07 12:34:04;;;;;;;9.32;3.55;;;;;;;20.69;42.55;101445.38;5053426;28;20813;-56
2022/05/07 12:36:33;;;;;;;8.43;3.58;;;;;;;20.62;43.02;101446.53;5053729;28;20064;-56
2022/05/07 12:39:07;;;;;;;8.05;2.90;;;;;;;20.59;43.32;101444.03;5053360;28;20477;-54